sensor_id;sensor_type;location;lat;lon;timestamp;P1;durP1;ratioP1;P2;durP2;ratioP2
51602;SDS011;37954;51.980;5.850;2023-09-18T00:03:45;13.35;;;11.90;;
51602;SDS011;37954;51.980;5.850;2023-09-18T00:07:56;13.88;;;11.20;;
51602;SDS011;37954;51.980;5.850;2023-09-18T00:12:08;11.93;;;10.73;;
51602;SDS011;37954;51.980;5.850;2023-09-18T00:16:21;14.18;;;11.82;;
51602;SDS011;37954;51.980;5.850;2023-09-18T00:20:33;13.27;;;11.40;;
51602;SDS011;37954;51.980;5.850;2023-09-18T00:24:47;13.30;;;11.90;;
51602;SDS011;37954;51.980;5.850;2023-09-18T00:28:59;12.65;;;11.18;;
51602;SDS011;37954;51.980;5.850;2023-09-18T00:33:11;14.85;;;12.02;;
51602;SDS011;37954;51.980;5.850;2023-09-18T00:37:23;15.60;;;11.70;;
51602;SDS011;37954;51.980;5.850;2023-09-18T00:41:35;13.68;;;12.23;;
51602;SDS011;37954;51.980;5.850;2023-09-18T00:45:48;13.90;;;11.32;;
51602;SDS011;37954;51.980;5.850;2023-09-18T00:50:00;15.25;;;11.43;;
51602;SDS011;37954;51.980;5.850;2023-09-18T00:54:13;18.38;;;11.15;;
51602;SDS011;37954;51.980;5.850;2023-09-18T00:58:28;17.33;;;11.45;;
51602;SDS011;37954;51.980;5.850;2023-09-18T01:02:41;17.25;;;12.13;;
51602;SDS011;37954;51.980;5.850;2023-09-18T01:06:53;14.65;;;11.50;;
51602;SDS011;37954;51.980;5.850;2023-09-18T01:11:15;12.65;;;10.75;;
51602;SDS011;37954;51.980;5.850;2023-09-18T01:15:54;14.40;;;11.48;;
51602;SDS011;37954;51.980;5.850;2023-09-18T01:20:10;13.82;;;11.50;;
51602;SDS011;37954;51.980;5.850;2023-09-18T01:24:23;12.90;;;11.18;;
51602;SDS011;37954;51.980;5.850;2023-09-18T01:28:34;13.73;;;11.38;;
51602;SDS011;37954;51.980;5.850;2023-09-18T01:32:46;15.85;;;12.27;;
51602;SDS011;37954;51.980;5.850;2023-09-18T01:36:59;13.40;;;11.65;;
51602;SDS011;37954;51.980;5.850;2023-09-18T01:41:12;15.13;;;11.90;;
51602;SDS011;37954;51.980;5.850;2023-09-18T01:45:24;16.83;;;12.43;;
51602;SDS011;37954;51.980;5.850;2023-09-18T01:49:36;13.93;;;11.65;;
51602;SDS011;37954;51.980;5.850;2023-09-18T01:53:52;13.18;;;11.73;;
51602;SDS011;37954;51.980;5.850;2023-09-18T01:58:04;14.90;;;11.77;;
51602;SDS011;37954;51.980;5.850;2023-09-18T02:02:17;16.13;;;12.43;;
51602;SDS011;37954;51.980;5.850;2023-09-18T02:06:45;14.93;;;11.98;;
51602;SDS011;37954;51.980;5.850;2023-09-18T02:10:58;16.23;;;12.95;;
51602;SDS011;37954;51.980;5.850;2023-09-18T02:15:10;19.63;;;12.68;;
51602;SDS011;37954;51.980;5.850;2023-09-18T02:19:22;16.65;;;12.13;;
51602;SDS011;37954;51.980;5.850;2023-09-18T02:23:34;16.17;;;13.05;;
51602;SDS011;37954;51.980;5.850;2023-09-18T02:27:46;13.45;;;12.07;;
51602;SDS011;37954;51.980;5.850;2023-09-18T02:31:58;13.48;;;12.07;;
51602;SDS011;37954;51.980;5.850;2023-09-18T02:36:10;15.60;;;12.05;;
51602;SDS011;37954;51.980;5.850;2023-09-18T02:40:21;13.40;;;11.73;;
51602;SDS011;37954;51.980;5.850;2023-09-18T02:44:33;13.60;;;11.68;;
51602;SDS011;37954;51.980;5.850;2023-09-18T02:48:46;14.00;;;11.95;;
51602;SDS011;37954;51.980;5.850;2023-09-18T02:52:58;16.27;;;12.07;;
51602;SDS011;37954;51.980;5.850;2023-09-18T02:57:10;15.85;;;11.93;;
51602;SDS011;37954;51.980;5.850;2023-09-18T03:01:22;14.73;;;12.05;;
51602;SDS011;37954;51.980;5.850;2023-09-18T03:05:34;15.95;;;11.82;;
51602;SDS011;37954;51.980;5.850;2023-09-18T03:09:46;17.58;;;12.07;;
51602;SDS011;37954;51.980;5.850;2023-09-18T03:13:58;16.77;;;11.13;;
51602;SDS011;37954;51.980;5.850;2023-09-18T03:18:10;14.50;;;11.73;;
51602;SDS011;37954;51.980;5.850;2023-09-18T03:22:23;17.45;;;11.40;;
51602;SDS011;37954;51.980;5.850;2023-09-18T03:26:37;14.00;;;10.38;;
51602;SDS011;37954;51.980;5.850;2023-09-18T03:30:49;13.75;;;11.43;;
51602;SDS011;37954;51.980;5.850;2023-09-18T03:35:04;18.83;;;11.77;;
51602;SDS011;37954;51.980;5.850;2023-09-18T03:39:16;13.32;;;11.88;;
51602;SDS011;37954;51.980;5.850;2023-09-18T03:43:28;15.00;;;10.98;;
51602;SDS011;37954;51.980;5.850;2023-09-18T03:47:41;13.90;;;10.90;;
51602;SDS011;37954;51.980;5.850;2023-09-18T03:51:54;13.60;;;9.65;;
51602;SDS011;37954;51.980;5.850;2023-09-18T03:56:06;12.25;;;10.18;;
51602;SDS011;37954;51.980;5.850;2023-09-18T04:00:18;17.35;;;10.30;;
51602;SDS011;37954;51.980;5.850;2023-09-18T04:04:30;12.80;;;10.93;;
51602;SDS011;37954;51.980;5.850;2023-09-18T04:08:41;12.32;;;11.05;;
51602;SDS011;37954;51.980;5.850;2023-09-18T04:12:53;14.60;;;10.75;;
51602;SDS011;37954;51.980;5.850;2023-09-18T04:17:05;14.80;;;10.50;;
51602;SDS011;37954;51.980;5.850;2023-09-18T04:21:17;17.55;;;10.80;;
51602;SDS011;37954;51.980;5.850;2023-09-18T04:25:29;16.83;;;10.18;;
51602;SDS011;37954;51.980;5.850;2023-09-18T04:29:42;12.88;;;10.07;;
51602;SDS011;37954;51.980;5.850;2023-09-18T04:33:55;16.13;;;10.95;;
51602;SDS011;37954;51.980;5.850;2023-09-18T04:38:07;11.68;;;9.80;;
51602;SDS011;37954;51.980;5.850;2023-09-18T04:42:22;13.25;;;9.35;;
51602;SDS011;37954;51.980;5.850;2023-09-18T04:46:34;15.10;;;9.80;;
51602;SDS011;37954;51.980;5.850;2023-09-18T04:50:48;9.18;;;8.27;;
51602;SDS011;37954;51.980;5.850;2023-09-18T04:55:00;10.57;;;7.95;;
51602;SDS011;37954;51.980;5.850;2023-09-18T04:59:12;12.40;;;7.57;;
51602;SDS011;37954;51.980;5.850;2023-09-18T05:03:24;8.35;;;7.07;;
51602;SDS011;37954;51.980;5.850;2023-09-18T05:07:38;11.25;;;7.55;;
51602;SDS011;37954;51.980;5.850;2023-09-18T05:11:50;10.02;;;6.88;;
51602;SDS011;37954;51.980;5.850;2023-09-18T05:16:02;12.77;;;7.32;;
51602;SDS011;37954;51.980;5.850;2023-09-18T05:20:15;9.73;;;7.05;;
51602;SDS011;37954;51.980;5.850;2023-09-18T05:24:28;8.43;;;7.43;;
51602;SDS011;37954;51.980;5.850;2023-09-18T05:28:40;9.13;;;7.35;;
51602;SDS011;37954;51.980;5.850;2023-09-18T05:32:52;9.95;;;7.88;;
51602;SDS011;37954;51.980;5.850;2023-09-18T05:37:04;8.48;;;7.57;;
51602;SDS011;37954;51.980;5.850;2023-09-18T05:41:16;9.75;;;7.45;;
51602;SDS011;37954;51.980;5.850;2023-09-18T05:45:28;8.85;;;7.82;;
51602;SDS011;37954;51.980;5.850;2023-09-18T05:49:40;10.70;;;8.07;;
51602;SDS011;37954;51.980;5.850;2023-09-18T05:53:52;10.95;;;8.63;;
51602;SDS011;37954;51.980;5.850;2023-09-18T05:58:04;9.88;;;8.32;;
51602;SDS011;37954;51.980;5.850;2023-09-18T06:02:18;16.48;;;8.15;;
51602;SDS011;37954;51.980;5.850;2023-09-18T06:06:32;12.70;;;8.63;;
51602;SDS011;37954;51.980;5.850;2023-09-18T06:10:44;12.02;;;8.23;;
51602;SDS011;37954;51.980;5.850;2023-09-18T06:14:56;12.02;;;8.68;;
51602;SDS011;37954;51.980;5.850;2023-09-18T06:19:08;12.75;;;8.75;;
51602;SDS011;37954;51.980;5.850;2023-09-18T06:23:20;10.27;;;8.30;;
51602;SDS011;37954;51.980;5.850;2023-09-18T06:27:35;10.88;;;8.15;;
51602;SDS011;37954;51.980;5.850;2023-09-18T06:31:49;9.98;;;8.45;;
51602;SDS011;37954;51.980;5.850;2023-09-18T06:36:01;10.27;;;7.90;;
51602;SDS011;37954;51.980;5.850;2023-09-18T06:40:13;13.00;;;7.70;;
51602;SDS011;37954;51.980;5.850;2023-09-18T06:44:25;9.02;;;7.95;;
51602;SDS011;37954;51.980;5.850;2023-09-18T06:48:37;8.13;;;6.70;;
51602;SDS011;37954;51.980;5.850;2023-09-18T06:52:49;11.18;;;7.55;;
51602;SDS011;37954;51.980;5.850;2023-09-18T06:57:01;7.65;;;6.05;;
51602;SDS011;37954;51.980;5.850;2023-09-18T07:01:13;10.20;;;6.80;;
51602;SDS011;37954;51.980;5.850;2023-09-18T07:05:26;7.53;;;5.85;;
51602;SDS011;37954;51.980;5.850;2023-09-18T07:09:38;9.48;;;5.43;;
51602;SDS011;37954;51.980;5.850;2023-09-18T07:14:11;6.07;;;5.03;;
51602;SDS011;37954;51.980;5.850;2023-09-18T07:18:23;6.32;;;4.18;;
51602;SDS011;37954;51.980;5.850;2023-09-18T07:22:35;8.40;;;4.00;;
51602;SDS011;37954;51.980;5.850;2023-09-18T07:26:47;6.90;;;4.00;;
51602;SDS011;37954;51.980;5.850;2023-09-18T07:31:04;3.80;;;3.30;;
51602;SDS011;37954;51.980;5.850;2023-09-18T07:35:16;6.70;;;3.15;;
51602;SDS011;37954;51.980;5.850;2023-09-18T07:39:28;5.80;;;2.95;;
51602;SDS011;37954;51.980;5.850;2023-09-18T07:43:41;3.30;;;2.78;;
51602;SDS011;37954;51.980;5.850;2023-09-18T07:47:53;5.90;;;2.90;;
51602;SDS011;37954;51.980;5.850;2023-09-18T07:52:05;2.63;;;2.42;;
51602;SDS011;37954;51.980;5.850;2023-09-18T07:56:17;3.47;;;2.75;;
51602;SDS011;37954;51.980;5.850;2023-09-18T08:00:30;6.10;;;2.80;;
51602;SDS011;37954;51.980;5.850;2023-09-18T08:04:44;8.95;;;3.20;;
51602;SDS011;37954;51.980;5.850;2023-09-18T08:08:56;5.13;;;2.75;;
51602;SDS011;37954;51.980;5.850;2023-09-18T08:13:08;2.30;;;1.98;;
51602;SDS011;37954;51.980;5.850;2023-09-18T08:17:20;2.80;;;2.50;;
51602;SDS011;37954;51.980;5.850;2023-09-18T08:21:32;3.88;;;2.88;;
51602;SDS011;37954;51.980;5.850;2023-09-18T08:25:44;3.20;;;2.45;;
51602;SDS011;37954;51.980;5.850;2023-09-18T08:29:56;2.50;;;2.30;;
51602;SDS011;37954;51.980;5.850;2023-09-18T08:34:08;3.78;;;2.65;;
51602;SDS011;37954;51.980;5.850;2023-09-18T08:38:19;2.53;;;2.20;;
51602;SDS011;37954;51.980;5.850;2023-09-18T08:42:31;2.97;;;2.00;;
51602;SDS011;37954;51.980;5.850;2023-09-18T08:46:44;2.83;;;2.03;;
51602;SDS011;37954;51.980;5.850;2023-09-18T08:50:56;2.40;;;2.00;;
51602;SDS011;37954;51.980;5.850;2023-09-18T08:55:08;3.03;;;1.92;;
51602;SDS011;37954;51.980;5.850;2023-09-18T08:59:21;2.50;;;1.92;;
51602;SDS011;37954;51.980;5.850;2023-09-18T09:03:33;1.95;;;1.85;;
51602;SDS011;37954;51.980;5.850;2023-09-18T09:07:45;2.85;;;2.00;;
51602;SDS011;37954;51.980;5.850;2023-09-18T09:11:57;1.90;;;1.80;;
51602;SDS011;37954;51.980;5.850;2023-09-18T09:16:10;3.20;;;2.20;;
51602;SDS011;37954;51.980;5.850;2023-09-18T09:20:23;3.17;;;1.85;;
51602;SDS011;37954;51.980;5.850;2023-09-18T09:24:39;2.92;;;2.08;;
51602;SDS011;37954;51.980;5.850;2023-09-18T09:28:52;4.28;;;2.45;;
51602;SDS011;37954;51.980;5.850;2023-09-18T09:33:05;2.33;;;2.03;;
51602;SDS011;37954;51.980;5.850;2023-09-18T09:37:19;4.25;;;2.13;;
51602;SDS011;37954;51.980;5.850;2023-09-18T09:41:45;2.22;;;1.70;;
51602;SDS011;37954;51.980;5.850;2023-09-18T09:45:58;1.92;;;1.50;;
51602;SDS011;37954;51.980;5.850;2023-09-18T09:50:14;2.15;;;1.77;;
51602;SDS011;37954;51.980;5.850;2023-09-18T09:54:33;1.85;;;1.58;;
51602;SDS011;37954;51.980;5.850;2023-09-18T09:59:01;2.20;;;1.60;;
51602;SDS011;37954;51.980;5.850;2023-09-18T10:03:19;1.90;;;1.58;;
51602;SDS011;37954;51.980;5.850;2023-09-18T10:07:35;2.63;;;1.85;;
51602;SDS011;37954;51.980;5.850;2023-09-18T10:11:51;2.05;;;1.65;;
51602;SDS011;37954;51.980;5.850;2023-09-18T10:16:04;3.47;;;1.77;;
51602;SDS011;37954;51.980;5.850;2023-09-18T10:20:18;1.60;;;1.50;;
51602;SDS011;37954;51.980;5.850;2023-09-18T10:24:33;2.22;;;1.63;;
51602;SDS011;37954;51.980;5.850;2023-09-18T10:28:48;3.53;;;1.98;;
51602;SDS011;37954;51.980;5.850;2023-09-18T10:33:04;1.95;;;1.67;;
51602;SDS011;37954;51.980;5.850;2023-09-18T10:37:19;3.90;;;1.98;;
51602;SDS011;37954;51.980;5.850;2023-09-18T10:41:31;3.15;;;2.20;;
51602;SDS011;37954;51.980;5.850;2023-09-18T10:45:43;7.60;;;2.45;;
51602;SDS011;37954;51.980;5.850;2023-09-18T10:49:56;2.88;;;2.40;;
51602;SDS011;37954;51.980;5.850;2023-09-18T10:54:11;2.25;;;2.05;;
51602;SDS011;37954;51.980;5.850;2023-09-18T10:58:26;2.40;;;2.20;;
51602;SDS011;37954;51.980;5.850;2023-09-18T11:02:39;2.92;;;2.33;;
51602;SDS011;37954;51.980;5.850;2023-09-18T11:11:07;3.63;;;2.38;;
51602;SDS011;37954;51.980;5.850;2023-09-18T11:15:30;4.28;;;2.65;;
51602;SDS011;37954;51.980;5.850;2023-09-18T11:19:44;2.38;;;2.17;;
51602;SDS011;37954;51.980;5.850;2023-09-18T11:28:12;3.05;;;2.17;;
51602;SDS011;37954;51.980;5.850;2023-09-18T11:32:38;3.65;;;2.65;;
51602;SDS011;37954;51.980;5.850;2023-09-18T11:36:51;3.20;;;2.00;;
51602;SDS011;37954;51.980;5.850;2023-09-18T11:45:36;2.88;;;2.53;;
51602;SDS011;37954;51.980;5.850;2023-09-18T11:49:50;9.52;;;3.22;;
51602;SDS011;37954;51.980;5.850;2023-09-18T11:54:07;3.88;;;2.50;;
51602;SDS011;37954;51.980;5.850;2023-09-18T11:58:19;2.70;;;2.45;;
51602;SDS011;37954;51.980;5.850;2023-09-18T12:02:34;3.55;;;2.70;;
51602;SDS011;37954;51.980;5.850;2023-09-18T12:06:47;3.65;;;2.50;;
51602;SDS011;37954;51.980;5.850;2023-09-18T12:10:59;6.70;;;2.75;;
51602;SDS011;37954;51.980;5.850;2023-09-18T12:15:17;6.60;;;2.72;;
51602;SDS011;37954;51.980;5.850;2023-09-18T12:19:30;4.45;;;2.65;;
51602;SDS011;37954;51.980;5.850;2023-09-18T12:23:43;7.85;;;2.50;;
51602;SDS011;37954;51.980;5.850;2023-09-18T12:27:57;5.47;;;2.70;;
51602;SDS011;37954;51.980;5.850;2023-09-18T12:32:11;3.05;;;2.17;;
51602;SDS011;37954;51.980;5.850;2023-09-18T12:36:24;3.53;;;2.42;;
51602;SDS011;37954;51.980;5.850;2023-09-18T12:40:36;3.92;;;2.25;;
51602;SDS011;37954;51.980;5.850;2023-09-18T12:44:48;4.10;;;2.53;;
51602;SDS011;37954;51.980;5.850;2023-09-18T12:53:46;2.65;;;2.45;;
51602;SDS011;37954;51.980;5.850;2023-09-18T12:57:58;2.20;;;2.05;;
51602;SDS011;37954;51.980;5.850;2023-09-18T13:02:12;2.13;;;1.92;;
51602;SDS011;37954;51.980;5.850;2023-09-18T13:06:25;3.85;;;2.13;;
51602;SDS011;37954;51.980;5.850;2023-09-18T13:10:47;2.70;;;2.13;;
51602;SDS011;37954;51.980;5.850;2023-09-18T13:15:04;3.72;;;2.13;;
51602;SDS011;37954;51.980;5.850;2023-09-18T13:19:20;4.32;;;2.25;;
51602;SDS011;37954;51.980;5.850;2023-09-18T13:23:32;2.40;;;2.20;;
51602;SDS011;37954;51.980;5.850;2023-09-18T13:27:44;3.38;;;2.13;;
51602;SDS011;37954;51.980;5.850;2023-09-18T13:31:56;2.85;;;2.10;;
51602;SDS011;37954;51.980;5.850;2023-09-18T13:36:08;2.42;;;2.22;;
51602;SDS011;37954;51.980;5.850;2023-09-18T13:40:20;2.97;;;2.00;;
51602;SDS011;37954;51.980;5.850;2023-09-18T13:44:33;3.17;;;1.95;;
51602;SDS011;37954;51.980;5.850;2023-09-18T13:48:46;2.95;;;2.22;;
51602;SDS011;37954;51.980;5.850;2023-09-18T13:52:59;2.40;;;2.13;;
51602;SDS011;37954;51.980;5.850;2023-09-18T13:57:14;2.28;;;2.08;;
51602;SDS011;37954;51.980;5.850;2023-09-18T14:01:26;3.13;;;2.00;;
51602;SDS011;37954;51.980;5.850;2023-09-18T14:05:38;3.00;;;2.28;;
51602;SDS011;37954;51.980;5.850;2023-09-18T14:09:50;3.22;;;2.00;;
51602;SDS011;37954;51.980;5.850;2023-09-18T14:14:02;3.22;;;1.90;;
51602;SDS011;37954;51.980;5.850;2023-09-18T14:18:13;1.75;;;1.63;;
51602;SDS011;37954;51.980;5.850;2023-09-18T14:22:26;1.70;;;1.60;;
51602;SDS011;37954;51.980;5.850;2023-09-18T14:26:38;2.03;;;1.70;;
51602;SDS011;37954;51.980;5.850;2023-09-18T14:30:52;2.40;;;1.95;;
51602;SDS011;37954;51.980;5.850;2023-09-18T14:35:04;2.22;;;2.03;;
51602;SDS011;37954;51.980;5.850;2023-09-18T14:39:19;4.25;;;2.00;;
51602;SDS011;37954;51.980;5.850;2023-09-18T14:43:31;3.05;;;2.13;;
51602;SDS011;37954;51.980;5.850;2023-09-18T14:47:43;2.97;;;1.90;;
51602;SDS011;37954;51.980;5.850;2023-09-18T14:51:55;4.18;;;1.85;;
51602;SDS011;37954;51.980;5.850;2023-09-18T14:56:07;5.38;;;2.20;;
51602;SDS011;37954;51.980;5.850;2023-09-18T15:00:24;3.17;;;1.73;;
51602;SDS011;37954;51.980;5.850;2023-09-18T15:04:36;4.22;;;1.90;;
51602;SDS011;37954;51.980;5.850;2023-09-18T15:08:48;2.70;;;1.83;;
51602;SDS011;37954;51.980;5.850;2023-09-18T15:13:01;1.98;;;1.73;;
51602;SDS011;37954;51.980;5.850;2023-09-18T15:17:12;2.03;;;1.83;;
51602;SDS011;37954;51.980;5.850;2023-09-18T15:21:25;2.55;;;1.95;;
51602;SDS011;37954;51.980;5.850;2023-09-18T15:25:37;2.10;;;1.77;;
51602;SDS011;37954;51.980;5.850;2023-09-18T15:29:49;2.20;;;2.00;;
51602;SDS011;37954;51.980;5.850;2023-09-18T15:34:01;3.70;;;1.90;;
51602;SDS011;37954;51.980;5.850;2023-09-18T15:38:16;1.77;;;1.20;;
51602;SDS011;37954;51.980;5.850;2023-09-18T15:42:27;0.85;;;0.85;;
51602;SDS011;37954;51.980;5.850;2023-09-18T15:46:39;6.15;;;1.30;;
51602;SDS011;37954;51.980;5.850;2023-09-18T15:50:51;2.05;;;1.02;;
51602;SDS011;37954;51.980;5.850;2023-09-18T15:55:03;1.85;;;1.00;;
51602;SDS011;37954;51.980;5.850;2023-09-18T15:59:18;1.40;;;0.90;;
51602;SDS011;37954;51.980;5.850;2023-09-18T16:03:30;2.95;;;1.30;;
51602;SDS011;37954;51.980;5.850;2023-09-18T16:07:42;1.75;;;0.98;;
51602;SDS011;37954;51.980;5.850;2023-09-18T16:11:56;2.25;;;1.20;;
51602;SDS011;37954;51.980;5.850;2023-09-18T16:16:08;1.80;;;1.00;;
51602;SDS011;37954;51.980;5.850;2023-09-18T16:20:20;1.27;;;1.10;;
51602;SDS011;37954;51.980;5.850;2023-09-18T16:24:32;1.92;;;1.40;;
51602;SDS011;37954;51.980;5.850;2023-09-18T16:28:44;0.93;;;0.93;;
51602;SDS011;37954;51.980;5.850;2023-09-18T16:32:58;1.02;;;0.90;;
51602;SDS011;37954;51.980;5.850;2023-09-18T16:37:13;1.10;;;1.00;;
51602;SDS011;37954;51.980;5.850;2023-09-18T16:41:27;1.33;;;1.15;;
51602;SDS011;37954;51.980;5.850;2023-09-18T16:45:39;1.00;;;0.90;;
51602;SDS011;37954;51.980;5.850;2023-09-18T16:49:54;1.70;;;1.23;;
51602;SDS011;37954;51.980;5.850;2023-09-18T16:54:05;2.78;;;1.40;;
51602;SDS011;37954;51.980;5.850;2023-09-18T16:58:17;4.07;;;1.30;;
51602;SDS011;37954;51.980;5.850;2023-09-18T17:02:29;2.22;;;1.40;;
51602;SDS011;37954;51.980;5.850;2023-09-18T17:06:41;2.10;;;1.48;;
51602;SDS011;37954;51.980;5.850;2023-09-18T17:10:54;1.30;;;1.20;;
51602;SDS011;37954;51.980;5.850;2023-09-18T17:15:06;5.35;;;1.40;;
51602;SDS011;37954;51.980;5.850;2023-09-18T17:19:19;3.53;;;1.40;;
51602;SDS011;37954;51.980;5.850;2023-09-18T17:23:31;1.10;;;1.00;;
51602;SDS011;37954;51.980;5.850;2023-09-18T17:27:43;1.52;;;1.35;;
51602;SDS011;37954;51.980;5.850;2023-09-18T17:31:55;1.95;;;1.45;;
51602;SDS011;37954;51.980;5.850;2023-09-18T17:36:07;2.30;;;1.65;;
51602;SDS011;37954;51.980;5.850;2023-09-18T17:40:23;1.73;;;1.63;;
51602;SDS011;37954;51.980;5.850;2023-09-18T17:44:35;1.60;;;1.40;;
51602;SDS011;37954;51.980;5.850;2023-09-18T17:48:47;2.03;;;1.52;;
51602;SDS011;37954;51.980;5.850;2023-09-18T17:52:59;3.47;;;1.90;;
51602;SDS011;37954;51.980;5.850;2023-09-18T17:57:11;2.70;;;1.70;;
51602;SDS011;37954;51.980;5.850;2023-09-18T18:01:22;2.00;;;1.77;;
51602;SDS011;37954;51.980;5.850;2023-09-18T18:05:34;2.33;;;1.90;;
51602;SDS011;37954;51.980;5.850;2023-09-18T18:09:47;3.00;;;2.08;;
51602;SDS011;37954;51.980;5.850;2023-09-18T18:13:58;3.40;;;1.92;;
51602;SDS011;37954;51.980;5.850;2023-09-18T18:18:10;2.40;;;1.98;;
51602;SDS011;37954;51.980;5.850;2023-09-18T18:22:24;2.72;;;2.05;;
51602;SDS011;37954;51.980;5.850;2023-09-18T18:26:36;2.88;;;2.05;;
51602;SDS011;37954;51.980;5.850;2023-09-18T18:30:48;3.50;;;2.13;;
51602;SDS011;37954;51.980;5.850;2023-09-18T18:35:03;3.92;;;1.80;;
51602;SDS011;37954;51.980;5.850;2023-09-18T18:39:15;2.67;;;2.08;;
51602;SDS011;37954;51.980;5.850;2023-09-18T18:43:28;4.78;;;1.98;;
51602;SDS011;37954;51.980;5.850;2023-09-18T18:47:41;4.60;;;2.10;;
51602;SDS011;37954;51.980;5.850;2023-09-18T18:51:54;2.78;;;2.40;;
51602;SDS011;37954;51.980;5.850;2023-09-18T18:56:06;2.72;;;2.15;;
51602;SDS011;37954;51.980;5.850;2023-09-18T19:00:18;4.35;;;2.47;;
51602;SDS011;37954;51.980;5.850;2023-09-18T19:04:30;3.03;;;1.92;;
51602;SDS011;37954;51.980;5.850;2023-09-18T19:08:42;4.30;;;2.35;;
51602;SDS011;37954;51.980;5.850;2023-09-18T19:12:56;6.20;;;2.47;;
51602;SDS011;37954;51.980;5.850;2023-09-18T19:17:08;2.10;;;1.90;;
51602;SDS011;37954;51.980;5.850;2023-09-18T19:21:20;2.78;;;1.98;;
51602;SDS011;37954;51.980;5.850;2023-09-18T19:25:31;2.58;;;2.15;;
51602;SDS011;37954;51.980;5.850;2023-09-18T19:29:43;3.40;;;2.20;;
51602;SDS011;37954;51.980;5.850;2023-09-18T19:33:57;4.38;;;1.98;;
51602;SDS011;37954;51.980;5.850;2023-09-18T19:38:15;3.33;;;2.40;;
51602;SDS011;37954;51.980;5.850;2023-09-18T19:42:28;5.38;;;2.08;;
51602;SDS011;37954;51.980;5.850;2023-09-18T19:46:40;3.03;;;2.00;;
51602;SDS011;37954;51.980;5.850;2023-09-18T19:50:52;4.70;;;2.20;;
51602;SDS011;37954;51.980;5.850;2023-09-18T19:55:08;2.33;;;2.10;;
51602;SDS011;37954;51.980;5.850;2023-09-18T19:59:20;10.15;;;2.50;;
51602;SDS011;37954;51.980;5.850;2023-09-18T20:03:32;3.92;;;2.33;;
51602;SDS011;37954;51.980;5.850;2023-09-18T20:07:44;3.13;;;1.80;;
51602;SDS011;37954;51.980;5.850;2023-09-18T20:11:57;7.30;;;2.53;;
51602;SDS011;37954;51.980;5.850;2023-09-18T20:16:10;4.97;;;2.15;;
51602;SDS011;37954;51.980;5.850;2023-09-18T20:20:22;2.53;;;1.90;;
51602;SDS011;37954;51.980;5.850;2023-09-18T20:24:37;4.82;;;2.38;;
51602;SDS011;37954;51.980;5.850;2023-09-18T20:28:49;3.17;;;2.08;;
51602;SDS011;37954;51.980;5.850;2023-09-18T20:33:01;4.18;;;2.20;;
51602;SDS011;37954;51.980;5.850;2023-09-18T20:37:18;9.05;;;2.00;;
51602;SDS011;37954;51.980;5.850;2023-09-18T20:41:31;3.08;;;1.83;;
51602;SDS011;37954;51.980;5.850;2023-09-18T20:45:44;9.70;;;2.35;;
51602;SDS011;37954;51.980;5.850;2023-09-18T20:49:56;7.03;;;2.30;;
51602;SDS011;37954;51.980;5.850;2023-09-18T20:54:09;3.40;;;1.80;;
51602;SDS011;37954;51.980;5.850;2023-09-18T20:58:21;3.03;;;1.75;;
51602;SDS011;37954;51.980;5.850;2023-09-18T21:02:33;6.10;;;2.22;;
51602;SDS011;37954;51.980;5.850;2023-09-18T21:06:48;7.32;;;2.15;;
51602;SDS011;37954;51.980;5.850;2023-09-18T21:11:00;4.97;;;2.33;;
51602;SDS011;37954;51.980;5.850;2023-09-18T21:15:12;4.70;;;2.20;;
51602;SDS011;37954;51.980;5.850;2023-09-18T21:19:25;5.55;;;2.53;;
51602;SDS011;37954;51.980;5.850;2023-09-18T21:23:37;8.63;;;2.60;;
51602;SDS011;37954;51.980;5.850;2023-09-18T21:27:49;7.78;;;2.38;;
51602;SDS011;37954;51.980;5.850;2023-09-18T21:32:01;5.65;;;2.38;;
51602;SDS011;37954;51.980;5.850;2023-09-18T21:36:21;4.38;;;2.35;;
51602;SDS011;37954;51.980;5.850;2023-09-18T21:40:35;5.28;;;2.10;;
51602;SDS011;37954;51.980;5.850;2023-09-18T21:44:46;8.48;;;2.70;;
51602;SDS011;37954;51.980;5.850;2023-09-18T21:48:58;10.15;;;2.78;;
51602;SDS011;37954;51.980;5.850;2023-09-18T21:53:10;6.25;;;2.60;;
51602;SDS011;37954;51.980;5.850;2023-09-18T21:57:22;5.45;;;2.58;;
51602;SDS011;37954;51.980;5.850;2023-09-18T22:01:34;8.20;;;2.40;;
51602;SDS011;37954;51.980;5.850;2023-09-18T22:05:46;7.40;;;2.55;;
51602;SDS011;37954;51.980;5.850;2023-09-18T22:09:58;7.60;;;2.10;;
51602;SDS011;37954;51.980;5.850;2023-09-18T22:14:10;10.93;;;2.97;;
51602;SDS011;37954;51.980;5.850;2023-09-18T22:18:23;5.47;;;2.50;;
51602;SDS011;37954;51.980;5.850;2023-09-18T22:22:35;6.95;;;2.75;;
51602;SDS011;37954;51.980;5.850;2023-09-18T22:26:47;10.65;;;2.63;;
51602;SDS011;37954;51.980;5.850;2023-09-18T22:30:59;10.38;;;2.63;;
51602;SDS011;37954;51.980;5.850;2023-09-18T22:35:11;8.85;;;2.63;;
51602;SDS011;37954;51.980;5.850;2023-09-18T22:57:50;4.13;;;1.60;;
51602;SDS011;37954;51.980;5.850;2023-09-18T23:02:04;4.38;;;1.95;;
51602;SDS011;37954;51.980;5.850;2023-09-18T23:06:17;3.75;;;2.05;;
51602;SDS011;37954;51.980;5.850;2023-09-18T23:10:29;3.40;;;1.50;;
51602;SDS011;37954;51.980;5.850;2023-09-18T23:14:40;1.67;;;1.17;;
51602;SDS011;37954;51.980;5.850;2023-09-18T23:18:52;5.43;;;1.90;;
51602;SDS011;37954;51.980;5.850;2023-09-18T23:23:04;8.93;;;2.40;;
51602;SDS011;37954;51.980;5.850;2023-09-18T23:27:16;5.32;;;1.73;;
51602;SDS011;37954;51.980;5.850;2023-09-18T23:31:28;7.78;;;1.95;;
51602;SDS011;37954;51.980;5.850;2023-09-18T23:35:41;2.55;;;1.45;;
51602;SDS011;37954;51.980;5.850;2023-09-18T23:39:54;2.30;;;1.30;;
51602;SDS011;37954;51.980;5.850;2023-09-18T23:44:09;9.70;;;1.52;;
51602;SDS011;37954;51.980;5.850;2023-09-18T23:48:25;5.22;;;1.48;;
51602;SDS011;37954;51.980;5.850;2023-09-18T23:52:37;2.10;;;1.45;;
51602;SDS011;37954;51.980;5.850;2023-09-18T23:56:49;3.65;;;1.67;;
